Time;durP1;ratioP1;P1;durP2;ratioP2;P2;SDS_P1;SDS_P2;PMS_P1;PMS_P2;Temp;Humidity;BMP_temperature;BMP_pressure;BME280_temperature;BME280_humidity;BME280_pressure;Samples;Min_cycle;Max_cycle;Signal;HPM_P1;HPM_P2
2023/10/28 00:01:16;;;;;;;2.30;1.13;;;22.60;42.70;;;;;;6123371;23;20728;-41
2023/10/28 00:03:42;;;;;;;0.95;0.90;;;22.60;42.70;;;;;;6123047;23;20546;-41
2023/10/28 00:06:09;;;;;;;1.70;1.00;;;22.60;42.70;;;;;;6120981;23;20254;-41
2023/10/28 00:08:35;;;;;;;1.80;0.98;;;22.60;42.70;;;;;;6121993;23;20283;-43
2023/10/28 00:11:03;;;;;;;0.80;0.80;;;22.60;42.70;;;;;;6123762;23;20306;-38
2023/10/28 00:13:30;;;;;;;1.10;0.80;;;22.60;42.70;;;;;;6124169;23;20195;-39
2023/10/28 00:15:56;;;;;;;1.58;0.85;;;22.60;42.70;;;;;;6122808;23;20176;-38
2023/10/28 00:18:24;;;;;;;1.55;1.02;;;22.60;42.70;;;;;;6123900;23;20303;-43
2023/10/28 00:20:50;;;;;;;0.75;0.75;;;22.60;42.70;;;;;;6123783;23;20203;-44
2023/10/28 00:23:17;;;;;;;2.20;1.10;;;22.60;42.70;;;;;;6122193;23;20767;-42
2023/10/28 00:25:43;;;;;;;3.03;1.08;;;22.60;42.80;;;;;;6123133;23;20203;-42
2023/10/28 00:28:10;;;;;;;2.28;1.08;;;22.60;42.80;;;;;;6123212;23;20262;-42
2023/10/28 00:30:36;;;;;;;1.13;1.02;;;22.60;42.80;;;;;;6123054;23;20208;-39
2023/10/28 00:33:03;;;;;;;1.15;0.90;;;22.60;42.70;;;;;;6122600;23;20182;-42
2023/10/28 00:35:30;;;;;;;1.40;1.00;;;22.60;42.80;;;;;;6123593;23;20176;-43
2023/10/28 00:37:56;;;;;;;0.95;0.70;;;22.60;42.80;;;;;;6123833;23;20255;-39
2023/10/28 00:40:22;;;;;;;1.63;1.13;;;22.60;42.80;;;;;;6122862;23;20275;-43
2023/10/28 00:42:49;;;;;;;1.77;0.95;;;22.60;42.80;;;;;;6120893;23;20212;-41
2023/10/28 00:45:16;;;;;;;1.67;0.98;;;22.60;42.80;;;;;;6121404;23;20259;-39
2023/10/28 00:47:44;;;;;;;1.88;0.95;;;22.60;42.80;;;;;;6122678;23;20183;-41
2023/10/28 00:50:10;;;;;;;1.08;1.00;;;22.60;42.80;;;;;;6123039;23;20278;-38
2023/10/28 00:52:37;;;;;;;1.00;1.00;;;22.60;42.80;;;;;;6123827;23;20251;-39
2023/10/28 00:55:03;;;;;;;1.20;0.80;;;22.60;42.80;;;;;;6123805;23;20182;-38
2023/10/28 00:57:30;;;;;;;1.83;0.80;;;22.60;42.80;;;;;;6123936;23;20255;-39
2023/10/28 00:59:57;;;;;;;1.77;1.00;;;22.60;42.80;;;;;;6120246;23;20211;-42
2023/10/28 01:02:24;;;;;;;1.20;1.00;;;22.60;42.80;;;;;;6121632;23;20553;-39
2023/10/28 01:04:51;;;;;;;1.20;0.90;;;22.60;42.80;;;;;;6123863;23;20556;-39
2023/10/28 01:07:18;;;;;;;0.80;0.80;;;22.60;42.80;;;;;;6125233;23;20176;-41
2023/10/28 01:09:44;;;;;;;1.55;1.02;;;22.60;42.80;;;;;;6124880;23;20212;-42
2023/10/28 01:12:12;;;;;;;1.48;1.17;;;22.60;42.90;;;;;;6123810;23;20208;-43
2023/10/28 01:14:39;;;;;;;0.98;0.98;;;22.60;42.80;;;;;;6124190;23;20259;-40
2023/10/28 01:17:06;;;;;;;1.23;1.13;;;22.60;42.80;;;;;;6124757;23;20219;-40
2023/10/28 01:19:34;;;;;;;2.80;1.10;;;22.60;42.90;;;;;;6124781;23;20176;-38
2023/10/28 01:22:00;;;;;;;1.98;0.85;;;22.60;42.80;;;;;;6120940;23;20190;-38
2023/10/28 01:24:28;;;;;;;0.90;0.90;;;22.60;42.90;;;;;;6125011;23;20215;-38
2023/10/28 01:26:54;;;;;;;1.25;1.15;;;22.60;42.90;;;;;;6124976;23;20176;-42
2023/10/28 01:29:22;;;;;;;1.10;1.00;;;22.60;42.90;;;;;;6121624;23;20521;-37
2023/10/28 01:31:48;;;;;;;0.77;0.77;;;22.60;42.90;;;;;;6123274;23;20213;-39
2023/10/28 01:34:15;;;;;;;0.90;0.90;;;22.60;42.90;;;;;;6124702;23;20263;-41
2023/10/28 01:36:42;;;;;;;1.52;1.00;;;22.60;43.60;;;;;;6124012;23;20263;-41
2023/10/28 01:39:09;;;;;;;1.08;0.98;;;22.60;42.90;;;;;;6124043;23;20179;-38
2023/10/28 01:41:35;;;;;;;0.90;0.85;;;22.60;42.90;;;;;;6125215;23;20275;-38
2023/10/28 01:44:02;;;;;;;1.88;0.93;;;22.60;42.90;;;;;;6125272;23;20267;-41
2023/10/28 01:46:29;;;;;;;1.10;0.93;;;22.60;42.90;;;;;;6121436;23;20212;-39
2023/10/28 01:48:55;;;;;;;0.80;0.80;;;22.60;42.90;;;;;;6122847;23;20664;-40
2023/10/28 01:51:22;;;;;;;0.80;0.80;;;22.60;42.90;;;;;;6125342;23;20270;-40
2023/10/28 01:53:49;;;;;;;1.25;0.80;;;22.60;43.00;;;;;;6125001;23;20612;-42
2023/10/28 01:56:16;;;;;;;1.00;0.70;;;22.60;43.00;;;;;;6124095;23;20184;-40
2023/10/28 01:58:43;;;;;;;1.60;0.90;;;22.60;43.00;;;;;;6124220;23;20180;-40
2023/10/28 02:01:09;;;;;;;0.75;0.75;;;22.60;42.90;;;;;;6124190;23;20271;-38
2023/10/28 02:03:35;;;;;;;2.88;1.15;;;22.60;43.00;;;;;;6120812;23;20175;-38
2023/10/28 02:06:02;;;;;;;0.68;0.68;;;22.60;43.00;;;;;;6123928;23;20640;-39
2023/10/28 02:08:28;;;;;;;0.90;0.90;;;22.60;43.00;;;;;;6119796;23;20553;-43
2023/10/28 02:10:55;;;;;;;0.80;0.80;;;22.60;43.00;;;;;;6123744;23;20555;-39
2023/10/28 02:13:22;;;;;;;0.95;0.90;;;22.60;43.00;;;;;;6125447;23;20183;-39
2023/10/28 02:15:48;;;;;;;0.80;0.80;;;22.60;43.00;;;;;;6123497;23;20183;-40
2023/10/28 02:18:15;;;;;;;1.08;0.95;;;22.60;43.00;;;;;;6124065;23;20182;-38
2023/10/28 02:20:42;;;;;;;1.65;0.80;;;22.60;43.00;;;;;;6125079;23;20200;-40
2023/10/28 02:23:13;;;;;;;1.02;1.00;;;22.60;43.00;;;;;;6124752;23;20260;-41
2023/10/28 02:25:40;;;;;;;0.90;0.90;;;22.60;43.10;;;;;;6121907;23;21039;-39
2023/10/28 02:28:06;;;;;;;0.80;0.80;;;22.60;43.00;;;;;;6122689;23;20255;-43
2023/10/28 02:30:33;;;;;;;0.90;0.88;;;22.60;43.10;;;;;;6123657;23;20196;-39
2023/10/28 02:32:59;;;;;;;1.25;0.90;;;22.60;43.10;;;;;;6124519;23;20271;-39
2023/10/28 02:35:26;;;;;;;0.82;0.82;;;22.60;43.10;;;;;;6124914;23;20482;-40
2023/10/28 02:37:53;;;;;;;1.25;1.00;;;22.60;43.10;;;;;;6124656;23;20231;-40
2023/10/28 02:40:19;;;;;;;0.93;0.90;;;22.60;43.10;;;;;;6122302;23;20196;-40
2023/10/28 02:42:45;;;;;;;1.02;0.80;;;22.60;43.10;;;;;;6119802;23;20207;-41
2023/10/28 02:45:12;;;;;;;1.27;1.10;;;22.60;43.10;;;;;;6122802;23;20270;-39
2023/10/28 02:47:38;;;;;;;0.95;0.90;;;22.60;43.10;;;;;;6121101;23;20688;-41
2023/10/28 02:50:05;;;;;;;1.08;0.90;;;22.60;43.10;;;;;;6122701;23;20583;-39
2023/10/28 02:52:31;;;;;;;1.15;0.90;;;22.60;43.10;;;;;;6123807;23;20657;-44
2023/10/28 02:54:58;;;;;;;0.75;0.75;;;22.60;43.20;;;;;;6124708;23;20202;-43
2023/10/28 02:57:24;;;;;;;1.08;0.88;;;22.60;43.20;;;;;;6123488;23;20215;-39
2023/10/28 02:59:51;;;;;;;0.70;0.70;;;22.60;43.20;;;;;;6123886;23;20196;-41
2023/10/28 03:02:17;;;;;;;0.80;0.80;;;22.60;43.20;;;;;;6123816;23;20242;-38
2023/10/28 03:04:44;;;;;;;0.80;0.80;;;22.60;43.20;;;;;;6121596;23;20180;-42
2023/10/28 03:07:10;;;;;;;1.65;0.80;;;22.60;43.20;;;;;;6122965;23;20679;-39
2023/10/28 03:09:36;;;;;;;0.90;0.90;;;22.60;43.20;;;;;;6123983;23;20204;-39
2023/10/28 03:12:03;;;;;;;1.23;0.73;;;22.60;43.20;;;;;;6124123;23;20287;-43
2023/10/28 03:14:30;;;;;;;0.80;0.80;;;22.60;43.20;;;;;;6124383;23;20183;-41
2023/10/28 03:16:56;;;;;;;0.82;0.82;;;22.60;43.20;;;;;;6123978;23;20264;-41
2023/10/28 03:19:23;;;;;;;0.88;0.88;;;22.60;43.20;;;;;;6124116;23;20210;-41
2023/10/28 03:21:49;;;;;;;1.05;1.05;;;22.60;43.20;;;;;;6121953;23;20268;-39
2023/10/28 03:24:16;;;;;;;1.02;0.80;;;22.60;43.20;;;;;;6123731;23;20175;-40
2023/10/28 03:26:43;;;;;;;0.70;0.70;;;22.60;43.20;;;;;;6124102;23;20179;-40
2023/10/28 03:29:09;;;;;;;0.80;0.80;;;22.60;43.20;;;;;;6123324;23;20255;-42
2023/10/28 03:31:35;;;;;;;1.63;0.93;;;22.60;43.20;;;;;;6121284;23;20282;-39
2023/10/28 03:34:02;;;;;;;1.48;0.88;;;22.60;43.20;;;;;;6123556;23;20258;-40
2023/10/28 03:36:29;;;;;;;0.80;0.80;;;22.60;43.20;;;;;;6123747;23;20480;-39
2023/10/28 03:38:56;;;;;;;0.70;0.70;;;22.60;43.30;;;;;;6123152;23;20212;-43
2023/10/28 03:41:23;;;;;;;1.50;0.82;;;22.60;43.30;;;;;;6123998;23;20231;-37
2023/10/28 03:43:49;;;;;;;1.08;1.00;;;22.60;43.40;;;;;;6124171;23;20227;-37
2023/10/28 03:46:16;;;;;;;1.23;1.05;;;22.50;43.40;;;;;;6123019;23;20175;-40
2023/10/28 03:48:43;;;;;;;2.05;0.80;;;22.60;43.40;;;;;;6118753;23;20176;-37
2023/10/28 03:51:09;;;;;;;0.73;0.73;;;22.60;43.40;;;;;;6122962;23;20239;-37
2023/10/28 03:53:36;;;;;;;0.95;0.95;;;22.60;43.40;;;;;;6124515;23;20258;-37
2023/10/28 03:56:02;;;;;;;1.38;0.80;;;22.60;43.40;;;;;;6123726;23;20215;-37
2023/10/28 03:58:29;;;;;;;1.88;0.88;;;22.60;43.40;;;;;;6123366;23;20182;-38
2023/10/28 04:00:55;;;;;;;2.28;1.00;;;22.60;43.40;;;;;;6122836;23;20216;-40
2023/10/28 04:03:22;;;;;;;0.90;0.90;;;22.60;43.40;;;;;;6124964;23;20211;-39
2023/10/28 04:05:48;;;;;;;0.85;0.85;;;22.60;43.40;;;;;;6120874;23;20258;-40
2023/10/28 04:08:14;;;;;;;2.08;0.93;;;22.60;43.40;;;;;;6121622;23;20180;-39
2023/10/28 04:10:41;;;;;;;0.80;0.80;;;22.60;43.40;;;;;;6124658;23;20250;-41
2023/10/28 04:13:07;;;;;;;1.27;0.95;;;22.60;43.40;;;;;;6124174;23;20242;-38
2023/10/28 04:15:35;;;;;;;1.35;0.98;;;22.60;43.40;;;;;;6124094;23;20182;-37
2023/10/28 04:18:01;;;;;;;1.13;0.93;;;22.60;43.40;;;;;;6123257;23;20203;-39
2023/10/28 04:20:28;;;;;;;1.58;1.00;;;22.60;43.40;;;;;;6123481;23;20208;-43
2023/10/28 04:22:54;;;;;;;1.02;0.82;;;22.60;43.40;;;;;;6121414;23;20266;-38
2023/10/28 04:25:21;;;;;;;0.95;0.95;;;22.60;43.40;;;;;;6123902;23;20491;-38
2023/10/28 04:27:48;;;;;;;1.67;0.90;;;22.60;43.40;;;;;;6123162;23;20587;-42
2023/10/28 04:30:15;;;;;;;1.98;0.80;;;22.60;43.40;;;;;;6122069;23;20689;-38
2023/10/28 04:32:42;;;;;;;0.90;0.90;;;22.60;43.40;;;;;;6123191;23;20687;-44
2023/10/28 04:35:10;;;;;;;1.35;1.00;;;22.60;43.40;;;;;;6124449;23;20182;-37
2023/10/28 04:37:36;;;;;;;2.65;1.02;;;22.60;43.40;;;;;;6122721;23;20176;-39
2023/10/28 04:40:03;;;;;;;1.08;0.90;;;22.60;43.40;;;;;;6119981;23;20282;-37
2023/10/28 04:42:30;;;;;;;1.08;0.93;;;22.60;43.40;;;;;;6124342;23;20180;-37
2023/10/28 04:44:56;;;;;;;1.70;1.00;;;22.60;43.40;;;;;;6125892;23;20254;-38
2023/10/28 04:47:24;;;;;;;0.73;0.70;;;22.60;43.40;;;;;;6123681;23;20278;-36
2023/10/28 04:49:50;;;;;;;0.80;0.73;;;22.60;43.40;;;;;;6124568;23;20661;-40
2023/10/28 04:52:17;;;;;;;1.05;0.82;;;22.60;43.40;;;;;;6125441;23;20203;-36
2023/10/28 04:54:43;;;;;;;0.80;0.80;;;22.60;43.40;;;;;;6125408;23;20254;-36
2023/10/28 04:57:10;;;;;;;1.08;0.98;;;22.60;43.40;;;;;;6123499;23;20697;-42
2023/10/28 04:59:36;;;;;;;1.40;1.00;;;22.60;43.40;;;;;;6122265;23;20738;-40
2023/10/28 05:02:03;;;;;;;0.70;0.70;;;22.60;43.40;;;;;;6123490;23;20225;-41
2023/10/28 05:04:29;;;;;;;1.00;0.90;;;22.60;43.40;;;;;;6125329;23;20510;-37
2023/10/28 05:06:55;;;;;;;2.08;1.05;;;22.60;43.40;;;;;;6124847;23;20569;-44
2023/10/28 05:09:22;;;;;;;1.08;0.88;;;22.60;43.40;;;;;;6124880;23;20280;-38
2023/10/28 05:11:48;;;;;;;0.80;0.80;;;22.60;43.40;;;;;;6124375;23;20235;-42
2023/10/28 05:14:15;;;;;;;1.10;0.90;;;22.60;43.40;;;;;;6125860;23;20259;-37
2023/10/28 05:16:41;;;;;;;1.05;0.98;;;22.60;43.40;;;;;;6121453;23;20291;-40
2023/10/28 05:19:08;;;;;;;1.45;0.80;;;22.60;43.40;;;;;;6122656;23;20278;-40
2023/10/28 05:21:34;;;;;;;1.08;0.95;;;22.60;43.40;;;;;;6124827;23;20191;-41
2023/10/28 05:24:01;;;;;;;0.90;0.90;;;22.60;43.40;;;;;;6125877;23;20182;-41
2023/10/28 05:26:27;;;;;;;1.05;0.82;;;22.60;43.40;;;;;;6124907;23;20211;-38
2023/10/28 05:28:54;;;;;;;2.13;0.95;;;22.60;43.40;;;;;;6124954;23;20263;-38
2023/10/28 05:31:20;;;;;;;1.80;0.80;;;22.60;43.40;;;;;;6121763;23;20254;-43
2023/10/28 05:33:47;;;;;;;1.00;0.70;;;22.60;43.40;;;;;;6123935;23;20254;-38
2023/10/28 05:36:15;;;;;;;1.23;0.73;;;22.60;43.40;;;;;;6124276;23;20590;-37
2023/10/28 05:38:42;;;;;;;2.20;0.98;;;22.60;43.40;;;;;;6123758;23;20176;-39
2023/10/28 05:41:09;;;;;;;1.92;0.95;;;22.60;43.50;;;;;;6125104;23;20180;-38
2023/10/28 05:43:35;;;;;;;0.80;0.80;;;22.60;43.50;;;;;;6125239;23;20176;-40
2023/10/28 05:46:02;;;;;;;4.22;0.90;;;22.60;43.50;;;;;;6124599;23;20254;-38
2023/10/28 05:48:28;;;;;;;1.45;0.82;;;22.60;43.60;;;;;;6122911;23;20275;-38
2023/10/28 05:50:55;;;;;;;1.30;0.90;;;22.50;43.50;;;;;;6123600;23;20195;-41
2023/10/28 05:53:22;;;;;;;1.45;1.00;;;22.50;43.60;;;;;;6124787;23;20286;-41
2023/10/28 05:55:48;;;;;;;0.98;0.80;;;22.50;43.60;;;;;;6123630;23;20235;-41
2023/10/28 05:58:15;;;;;;;0.80;0.80;;;22.60;43.60;;;;;;6121308;23;20286;-39
2023/10/28 06:00:42;;;;;;;1.55;0.82;;;22.60;43.70;;;;;;6122747;23;20240;-38
2023/10/28 06:03:09;;;;;;;0.68;0.68;;;22.50;43.60;;;;;;6123612;23;20179;-40
2023/10/28 06:05:35;;;;;;;1.27;0.70;;;22.60;43.70;;;;;;6122809;23;20180;-39
2023/10/28 06:08:02;;;;;;;0.70;0.70;;;22.50;43.60;;;;;;6120862;23;20230;-38
2023/10/28 06:10:28;;;;;;;0.95;0.70;;;22.50;43.60;;;;;;6123770;23;20275;-41
2023/10/28 06:12:55;;;;;;;2.00;1.05;;;22.50;43.60;;;;;;6125338;23;20204;-38
2023/10/28 06:15:24;;;;;;;3.55;1.10;;;22.50;43.60;;;;;;6124896;23;20254;-39
2023/10/28 06:17:51;;;;;;;0.85;0.82;;;22.50;43.60;;;;;;6123379;23;20180;-39
2023/10/28 06:20:19;;;;;;;2.00;0.80;;;22.50;43.60;;;;;;6123689;23;20278;-40
2023/10/28 06:22:45;;;;;;;1.17;0.80;;;22.60;43.70;;;;;;6123781;23;20211;-39
2023/10/28 06:25:14;;;;;;;1.98;0.80;;;22.50;43.70;;;;;;6120672;23;20265;-41
2023/10/28 06:27:40;;;;;;;2.75;0.80;;;22.50;43.60;;;;;;6121891;23;20208;-39
2023/10/28 06:30:07;;;;;;;1.50;0.80;;;22.50;43.60;;;;;;6123342;23;20196;-38
2023/10/28 06:32:33;;;;;;;0.98;0.88;;;22.50;43.80;;;;;;6117897;23;20196;-39
2023/10/28 06:35:00;;;;;;;1.02;0.82;;;22.50;44.00;;;;;;6123531;23;20689;-42
2023/10/28 06:37:26;;;;;;;1.77;0.90;;;22.50;44.00;;;;;;6123472;23;20557;-38
2023/10/28 06:39:53;;;;;;;1.40;0.90;;;22.50;44.10;;;;;;6120807;23;20298;-38
2023/10/28 06:42:19;;;;;;;2.08;0.93;;;22.50;44.10;;;;;;6123217;23;20180;-37
2023/10/28 06:44:46;;;;;;;1.80;1.00;;;22.50;44.20;;;;;;6124678;23;20188;-41
2023/10/28 06:47:12;;;;;;;1.40;0.88;;;22.50;44.30;;;;;;6123292;23;20267;-38
2023/10/28 06:49:38;;;;;;;1.20;0.70;;;22.50;44.30;;;;;;6123597;23;20200;-39
2023/10/28 06:52:05;;;;;;;1.17;0.90;;;22.40;44.30;;;;;;6124349;23;20238;-37
2023/10/28 06:54:32;;;;;;;1.17;0.90;;;22.40;44.30;;;;;;6120392;23;20183;-37
2023/10/28 06:56:58;;;;;;;1.90;1.08;;;22.50;44.30;;;;;;6120957;23;20668;-40
2023/10/28 06:59:25;;;;;;;1.52;0.82;;;22.40;44.30;;;;;;6123263;23;20196;-40
2023/10/28 07:01:52;;;;;;;2.25;1.10;;;22.40;44.20;;;;;;6122364;23;20416;-39
2023/10/28 07:04:18;;;;;;;1.30;0.80;;;22.50;44.30;;;;;;6124092;23;20184;-37
2023/10/28 07:06:45;;;;;;;2.03;1.00;;;22.50;44.30;;;;;;6123544;23;20258;-38
2023/10/28 07:09:13;;;;;;;4.07;0.80;;;22.40;44.30;;;;;;6119362;23;20243;-41
2023/10/28 07:11:42;;;;;;;1.00;0.82;;;22.40;44.30;;;;;;6119420;23;20180;-41
2023/10/28 07:14:09;;;;;;;0.82;0.80;;;22.40;44.40;;;;;;6118268;23;20179;-39
2023/10/28 07:16:36;;;;;;;2.53;1.10;;;22.40;44.40;;;;;;6122189;23;20202;-39
2023/10/28 07:19:03;;;;;;;3.08;0.90;;;22.40;44.30;;;;;;6117459;23;20204;-40
2023/10/28 07:21:29;;;;;;;1.25;0.82;;;22.40;44.40;;;;;;6116387;23;20192;-37
2023/10/28 07:23:55;;;;;;;2.70;1.15;;;22.40;44.40;;;;;;6117740;23;20290;-40
2023/10/28 07:26:22;;;;;;;1.20;0.85;;;22.40;44.40;;;;;;6122424;23;20658;-41
2023/10/28 07:28:49;;;;;;;1.70;0.80;;;22.50;44.50;;;;;;6120306;23;20200;-38
2023/10/28 07:31:16;;;;;;;2.05;1.25;;;22.40;44.40;;;;;;6119662;23;20709;-39
2023/10/28 07:33:42;;;;;;;1.20;1.10;;;22.50;44.40;;;;;;6121661;23;20208;-42
2023/10/28 07:36:09;;;;;;;6.03;1.25;;;22.50;44.30;;;;;;6124364;23;20736;-40
2023/10/28 07:38:36;;;;;;;3.83;1.00;;;22.50;44.30;;;;;;6121885;23;20386;-43
2023/10/28 07:41:02;;;;;;;2.30;1.30;;;22.50;44.30;;;;;;6138954;23;20241;-37
2023/10/28 07:43:29;;;;;;;2.60;0.93;;;22.60;44.40;;;;;;6182772;23;20610;-39
2023/10/28 07:45:56;;;;;;;2.55;1.30;;;22.60;44.20;;;;;;6183528;23;20262;-41
2023/10/28 07:48:22;;;;;;;2.88;0.98;;;22.60;44.20;;;;;;6181395;23;20178;-42
2023/10/28 07:50:49;;;;;;;4.03;0.90;;;22.60;45.20;;;;;;6181987;23;20265;-43
2023/10/28 07:53:17;;;;;;;2.20;1.13;;;22.60;44.60;;;;;;6183570;23;20202;-42
2023/10/28 07:55:43;;;;;;;2.53;1.20;;;22.60;45.20;;;;;;6184211;23;20179;-41
2023/10/28 07:58:09;;;;;;;3.13;1.33;;;22.50;45.40;;;;;;6179405;23;20178;-42
2023/10/28 08:00:37;;;;;;;2.60;1.23;;;22.50;45.60;;;;;;6182848;23;20205;-42
2023/10/28 08:03:04;;;;;;;1.88;1.10;;;22.50;45.60;;;;;;6182357;23;20206;-42
2023/10/28 08:05:30;;;;;;;3.05;1.20;;;22.50;45.70;;;;;;6183140;23;20261;-41
2023/10/28 08:07:57;;;;;;;4.78;1.80;;;22.50;45.80;;;;;;6183020;23;20709;-41
2023/10/28 08:10:23;;;;;;;2.05;1.48;;;22.50;45.90;;;;;;6182966;23;20226;-43
2023/10/28 08:12:50;;;;;;;5.63;1.45;;;22.50;45.80;;;;;;6180307;23;20209;-43
2023/10/28 08:15:16;;;;;;;3.90;1.40;;;21.20;42.70;;;;;;6173333;23;20269;-43
2023/10/28 08:17:42;;;;;;;2.25;1.17;;;21.40;43.00;;;;;;6183718;23;20205;-43
2023/10/28 08:20:09;;;;;;;2.08;1.23;;;21.70;43.30;;;;;;6182004;23;20198;-43
2023/10/28 08:22:36;;;;;;;3.00;1.20;;;21.90;44.60;;;;;;6182001;23;20217;-41
2023/10/28 08:25:04;;;;;;;7.55;1.73;;;21.90;45.10;;;;;;6184308;23;20181;-44
2023/10/28 08:27:31;;;;;;;1.65;1.13;;;22.00;45.30;;;;;;6181649;23;20175;-43
2023/10/28 08:29:58;;;;;;;1.67;1.05;;;22.10;45.40;;;;;;6183988;23;20198;-42
2023/10/28 08:32:24;;;;;;;2.63;1.35;;;22.10;45.60;;;;;;6184631;23;20320;-43
2023/10/28 08:34:53;;;;;;;2.40;1.08;;;22.20;45.40;;;;;;6184703;23;20698;-43
2023/10/28 08:37:21;;;;;;;1.30;1.08;;;22.30;45.20;;;;;;6184451;23;20265;-44
2023/10/28 08:39:47;;;;;;;1.30;1.20;;;22.30;45.30;;;;;;6183438;23;20198;-45
2023/10/28 08:42:14;;;;;;;1.85;1.10;;;22.30;45.20;;;;;;6178024;23;20257;-39
2023/10/28 08:44:40;;;;;;;1.83;1.00;;;22.40;45.00;;;;;;6182521;23;20181;-37
2023/10/28 08:47:07;;;;;;;0.90;0.90;;;22.40;44.80;;;;;;6183333;23;20269;-35
2023/10/28 08:49:33;;;;;;;1.95;1.13;;;22.50;44.70;;;;;;6184433;23;20194;-35
2023/10/28 08:52:01;;;;;;;1.05;0.90;;;22.50;44.80;;;;;;6182182;23;20181;-35
2023/10/28 08:54:28;;;;;;;2.05;1.00;;;22.50;44.80;;;;;;6184978;23;20680;-35
2023/10/28 08:56:54;;;;;;;2.20;1.05;;;22.50;44.60;;;;;;6182094;23;20185;-42
2023/10/28 08:59:21;;;;;;;2.25;1.02;;;22.50;44.40;;;;;;6183807;23;20255;-37
2023/10/28 09:01:47;;;;;;;2.28;1.00;;;22.60;45.40;;;;;;6179829;23;20182;-37
2023/10/28 09:04:14;;;;;;;1.50;0.80;;;22.70;45.30;;;;;;6184377;23;20233;-42
2023/10/28 09:06:42;;;;;;;3.08;1.33;;;22.70;45.20;;;;;;6183131;23;20174;-36
2023/10/28 09:09:12;;;;;;;8.20;1.33;;;22.60;44.30;;;;;;6182032;23;20202;-36
2023/10/28 09:11:38;;;;;;;3.17;1.10;;;22.50;43.90;;;;;;6179652;23;20175;-34
2023/10/28 09:14:07;;;;;;;2.50;1.15;;;22.50;42.30;;;;;;6183827;23;20285;-32
2023/10/28 09:16:34;;;;;;;4.40;1.30;;;22.40;41.20;;;;;;6182602;23;20174;-31
2023/10/28 09:19:00;;;;;;;5.30;1.27;;;22.40;41.50;;;;;;6183267;23;20252;-35
2023/10/28 09:21:28;;;;;;;2.78;1.15;;;22.40;41.70;;;;;;6183436;23;20218;-36
2023/10/28 09:23:54;;;;;;;3.53;1.10;;;22.50;42.10;;;;;;6184971;23;20179;-35
2023/10/28 09:26:21;;;;;;;1.60;1.10;;;22.50;42.50;;;;;;6184392;23;20261;-33
2023/10/28 09:28:48;;;;;;;2.15;1.00;;;22.60;42.90;;;;;;6184870;23;20321;-35
2023/10/28 09:31:14;;;;;;;3.28;1.02;;;22.60;43.30;;;;;;6185439;23;20175;-35
2023/10/28 09:33:41;;;;;;;3.05;1.13;;;22.60;43.60;;;;;;6185304;23;20206;-35
2023/10/28 09:36:07;;;;;;;4.72;1.00;;;22.60;43.80;;;;;;6185127;23;20221;-35
2023/10/28 09:38:34;;;;;;;2.85;1.30;;;22.60;44.00;;;;;;6184242;23;20711;-32
2023/10/28 09:41:01;;;;;;;2.13;0.98;;;22.70;44.20;;;;;;6185224;23;20178;-35
2023/10/28 09:43:28;;;;;;;2.47;1.38;;;22.70;44.40;;;;;;6180346;23;20647;-35
2023/10/28 09:45:54;;;;;;;5.75;1.20;;;22.70;44.30;;;;;;6174626;23;20797;-35
2023/10/28 09:48:21;;;;;;;2.17;1.00;;;22.70;44.30;;;;;;6184389;23;20226;-34
2023/10/28 09:50:49;;;;;;;3.42;1.10;;;22.70;44.20;;;;;;6185413;23;20178;-34
2023/10/28 09:53:15;;;;;;;2.70;0.95;;;22.80;44.30;;;;;;6184634;23;20663;-34
2023/10/28 09:55:42;;;;;;;2.78;1.17;;;22.80;44.30;;;;;;6185364;23;20174;-35
2023/10/28 09:58:08;;;;;;;1.58;0.90;;;22.80;44.20;;;;;;6184732;23;20202;-35
2023/10/28 10:00:37;;;;;;;1.40;0.88;;;22.80;44.00;;;;;;6183967;23;20631;-35
2023/10/28 10:03:04;;;;;;;2.65;1.05;;;22.80;44.80;;;;;;6184958;23;20543;-35
2023/10/28 10:05:32;;;;;;;1.38;1.08;;;22.90;44.20;;;;;;6180966;23;20202;-34
2023/10/28 10:07:58;;;;;;;1.70;1.02;;;22.80;43.90;;;;;;6179404;23;20249;-35
2023/10/28 10:10:25;;;;;;;1.38;1.10;;;22.80;44.00;;;;;;6169780;23;20178;-34
2023/10/28 10:12:54;;;;;;;2.17;1.25;;;22.80;44.40;;;;;;6172615;23;20365;-31
2023/10/28 10:15:20;;;;;;;1.58;0.80;;;22.80;44.70;;;;;;6173359;23;20185;-34
2023/10/28 10:17:48;;;;;;;1.35;0.95;;;22.90;44.90;;;;;;6178775;23;20179;-33
2023/10/28 10:20:15;;;;;;;4.93;1.25;;;22.90;44.70;;;;;;6178944;23;20175;-36
2023/10/28 10:22:41;;;;;;;1.92;1.08;;;22.90;44.80;;;;;;6180213;23;20670;-37
2023/10/28 10:25:09;;;;;;;6.10;1.30;;;22.90;45.40;;;;;;6182567;23;20635;-34
2023/10/28 10:27:35;;;;;;;5.82;1.60;;;22.90;45.20;;;;;;6182135;23;20183;-36
2023/10/28 10:30:02;;;;;;;3.15;1.50;;;22.90;45.00;;;;;;6181203;23;20563;-34
2023/10/28 10:32:28;;;;;;;3.75;1.70;;;22.80;45.10;;;;;;6182602;23;20217;-36
2023/10/28 10:34:54;;;;;;;6.68;1.63;;;22.80;43.90;;;;;;6182447;23;20213;-37
2023/10/28 10:37:21;;;;;;;8.27;2.17;;;22.80;41.90;;;;;;6183547;23;20210;-36
2023/10/28 10:39:47;;;;;;;5.05;1.40;;;22.70;41.80;;;;;;6182237;23;20273;-38
2023/10/28 10:42:14;;;;;;;3.47;1.80;;;22.80;42.70;;;;;;6183876;23;20174;-38
2023/10/28 10:44:40;;;;;;;6.40;1.50;;;22.80;43.70;;;;;;6184024;23;20261;-34
2023/10/28 10:47:08;;;;;;;5.22;1.80;;;22.90;44.30;;;;;;6183891;23;20213;-35
2023/10/28 10:49:34;;;;;;;6.65;1.85;;;22.90;45.00;;;;;;6181802;23;20205;-38
2023/10/28 10:52:01;;;;;;;8.73;1.92;;;23.00;44.80;;;;;;6184117;23;20274;-36
2023/10/28 10:54:27;;;;;;;6.43;1.90;;;23.00;44.90;;;;;;6183259;23;20203;-35
2023/10/28 10:56:54;;;;;;;4.93;1.52;;;23.00;45.80;;;;;;6180746;23;20217;-37
2023/10/28 10:59:20;;;;;;;6.43;1.88;;;23.00;45.90;;;;;;6180153;23;20273;-36
2023/10/28 11:01:47;;;;;;;13.18;5.47;;;23.00;46.30;;;;;;6173441;23;20189;-42
2023/10/28 11:04:13;;;;;;;19.35;8.73;;;23.00;47.00;;;;;;6181921;23;20529;-42
2023/10/28 11:06:40;;;;;;;22.80;9.02;;;23.00;46.80;;;;;;6183455;23;20277;-41
2023/10/28 11:09:06;;;;;;;39.90;16.75;;;23.00;46.80;;;;;;6181775;23;20274;-41
2023/10/28 11:11:35;;;;;;;32.58;13.77;;;23.00;46.80;;;;;;6183587;23;20253;-41
2023/10/28 11:14:02;;;;;;;37.17;15.95;;;23.00;46.80;;;;;;6179082;23;20198;-41
2023/10/28 11:16:28;;;;;;;41.28;17.27;;;23.00;46.50;;;;;;6179508;23;20257;-41
2023/10/28 11:18:55;;;;;;;37.10;15.82;;;23.00;46.40;;;;;;6181765;23;20201;-41
2023/10/28 11:21:21;;;;;;;40.47;16.30;;;23.00;46.20;;;;;;6182764;23;20186;-41
2023/10/28 11:23:48;;;;;;;38.33;16.45;;;23.00;46.10;;;;;;6182289;23;20185;-41
2023/10/28 11:26:14;;;;;;;37.45;16.40;;;23.00;46.00;;;;;;6180644;23;20702;-42
2023/10/28 11:28:41;;;;;;;39.15;15.70;;;23.00;46.10;;;;;;6181465;23;20237;-41
2023/10/28 11:31:08;;;;;;;37.05;15.20;;;23.00;46.00;;;;;;6179536;23;20175;-41
2023/10/28 11:33:35;;;;;;;34.22;16.10;;;23.00;45.90;;;;;;6181658;23;20539;-41
2023/10/28 11:36:04;;;;;;;39.20;15.20;;;23.00;45.90;;;;;;6183819;23;20479;-41
2023/10/28 11:38:30;;;;;;;38.97;15.85;;;23.00;46.50;;;;;;6182064;23;20678;-39
2023/10/28 11:40:56;;;;;;;36.40;16.00;;;23.00;46.00;;;;;;6183510;23;20575;-41
2023/10/28 11:43:23;;;;;;;40.95;16.23;;;23.00;46.00;;;;;;6183520;23;20301;-41
2023/10/28 11:45:49;;;;;;;38.90;17.17;;;23.00;46.00;;;;;;6183261;23;20262;-41
2023/10/28 11:48:16;;;;;;;39.65;15.85;;;23.00;46.00;;;;;;6180467;23;20269;-41
2023/10/28 11:50:44;;;;;;;38.72;15.93;;;23.00;46.10;;;;;;6182835;23;20217;-41
2023/10/28 11:53:14;;;;;;;37.83;16.10;;;23.00;46.00;;;;;;6183637;23;20178;-41
2023/10/28 11:55:41;;;;;;;38.92;14.77;;;23.00;46.00;;;;;;6181764;23;20178;-41
2023/10/28 11:58:08;;;;;;;36.55;16.17;;;22.90;45.90;;;;;;6182734;23;20273;-41
2023/10/28 12:00:35;;;;;;;34.75;15.45;;;23.00;45.90;;;;;;6183610;23;20174;-41
2023/10/28 12:03:04;;;;;;;39.00;15.63;;;23.00;45.80;;;;;;6183878;23;20253;-41
2023/10/28 12:05:30;;;;;;;36.55;14.57;;;22.90;45.70;;;;;;6179998;23;20225;-41
2023/10/28 12:07:57;;;;;;;25.58;10.55;;;22.90;44.80;;;;;;6184007;23;20277;-41
2023/10/28 12:10:23;;;;;;;15.27;7.28;;;22.80;43.10;;;;;;6182361;23;20255;-41
2023/10/28 12:12:50;;;;;;;13.77;5.93;;;22.70;41.20;;;;;;6183320;23;20263;-41
2023/10/28 12:15:16;;;;;;;14.82;6.25;;;22.70;40.20;;;;;;6182311;23;20598;-42
2023/10/28 12:17:44;;;;;;;18.92;8.90;;;22.70;40.40;;;;;;6182214;23;20575;-41
2023/10/28 12:20:14;;;;;;;20.85;9.30;;;22.70;41.50;;;;;;6181955;23;20179;-41
2023/10/28 12:22:40;;;;;;;17.55;7.53;;;22.80;41.90;;;;;;6182745;23;20186;-41
2023/10/28 12:25:07;;;;;;;15.57;7.22;;;22.80;43.40;;;;;;6181802;23;20257;-41
2023/10/28 12:27:33;;;;;;;17.88;8.43;;;22.80;42.70;;;;;;6182840;23;20178;-42
2023/10/28 12:30:00;;;;;;;15.25;6.15;;;22.80;42.90;;;;;;6182927;23;20257;-41
2023/10/28 12:32:26;;;;;;;14.23;6.20;;;22.80;43.40;;;;;;6182690;23;20257;-42
2023/10/28 12:34:54;;;;;;;13.73;5.85;;;22.80;43.50;;;;;;6183059;23;20242;-41
2023/10/28 12:37:20;;;;;;;11.90;5.68;;;22.80;41.80;;;;;;6183246;23;20537;-41
2023/10/28 12:39:46;;;;;;;10.07;4.80;;;22.80;43.30;;;;;;6183147;23;20210;-42
2023/10/28 12:42:13;;;;;;;13.18;5.18;;;22.80;42.80;;;;;;6183816;23;20253;-41